Time;durP1;ratioP1;P1;durP2;ratioP2;P2;SDS_P1;SDS_P2;PMS_P1;PMS_P2;Temp;Humidity;BMP_temperature;BMP_pressure;BME280_temperature;BME280_humidity;BME280_pressure;Samples;Min_cycle;Max_cycle;Signal;HPM_P1;HPM_P2
2024/03/05 07:34:50;;;;;;;44.90;27.60;;;;;;;;;;10548418;22;20044;-80
2024/03/05 07:39:51;;;;;;;24.08;15.88;;;;;;;;;;10572919;28;20127;-80
2024/03/05 07:44:52;;;;;;;22.17;14.70;;;;;;;;;;10593145;28;20309;-80
2024/03/05 07:49:53;;;;;;;15.15;10.38;;;;;;;;;;10560741;28;20074;-79
2024/03/05 07:54:54;;;;;;;26.98;18.02;;;;;;;;;;10541310;28;20024;-80
2024/03/05 07:59:55;;;;;;;16.50;11.52;;;;;;;;;;10558457;28;20387;-80
2024/03/05 08:04:56;;;;;;;26.48;17.45;;;;;;;;;;10557178;28;20048;-80
2024/03/05 08:09:57;;;;;;;32.05;21.42;;;;;;;;;;10557673;28;20123;-81
2024/03/05 08:14:58;;;;;;;36.35;21.50;;;;;;;;;;10559155;28;20050;-80
2024/03/05 08:20:00;;;;;;;31.05;19.92;;;;;;;;;;10540002;28;20028;-80
2024/03/05 08:25:12;;;;;;;30.58;19.63;;;;;;;;;;10553579;28;20025;-80
2024/03/05 08:30:21;;;;;;;30.23;18.90;;;;;;;;;;10533564;28;20021;-80
2024/03/05 08:35:22;;;;;;;30.38;19.30;;;;;;;;;;10534238;28;20066;-80
2024/03/05 08:40:24;;;;;;;28.50;18.95;;;;;;;;;;10537162;28;20024;-81
2024/03/05 08:45:25;;;;;;;31.05;19.55;;;;;;;;;;10535982;28;20038;-80
2024/03/05 08:50:28;;;;;;;35.90;22.23;;;;;;;;;;10554533;28;20035;-81
2024/03/05 08:55:29;;;;;;;32.72;20.80;;;;;;;;;;10555111;28;20479;-81
2024/03/05 09:00:33;;;;;;;28.25;17.20;;;;;;;;;;10554296;28;20383;-81
2024/03/05 09:05:35;;;;;;;28.48;19.10;;;;;;;;;;10560291;28;20051;-80
2024/03/05 09:10:36;;;;;;;29.45;19.25;;;;;;;;;;10567349;28;20008;-80
2024/03/05 09:15:37;;;;;;;29.13;19.63;;;;;;;;;;10581235;28;20024;-80
2024/03/05 09:20:38;;;;;;;20.95;14.60;;;;;;;;;;10556466;28;20036;-81
2024/03/05 09:25:41;;;;;;;25.30;16.23;;;;;;;;;;10536432;28;20092;-81
2024/03/05 09:30:42;;;;;;;19.85;13.85;;;;;;;;;;10551753;28;20040;-79
2024/03/05 09:35:43;;;;;;;23.58;15.60;;;;;;;;;;10553698;28;20456;-79
2024/03/05 09:40:45;;;;;;;29.92;18.75;;;;;;;;;;10553827;28;20028;-79
2024/03/05 09:45:47;;;;;;;27.60;18.27;;;;;;;;;;10535815;28;20031;-82
2024/03/05 09:50:49;;;;;;;28.35;18.13;;;;;;;;;;10555470;28;20114;-81
2024/03/05 09:55:52;;;;;;;24.25;16.48;;;;;;;;;;10535703;28;20050;-81
2024/03/05 10:00:54;;;;;;;24.10;16.95;;;;;;;;;;10537499;28;20127;-82
2024/03/05 10:05:55;;;;;;;22.58;15.18;;;;;;;;;;10535829;28;20488;-82
2024/03/05 10:11:03;;;;;;;21.55;14.75;;;;;;;;;;10554531;28;20367;-82
2024/03/05 10:16:15;;;;;;;20.05;13.40;;;;;;;;;;10568480;28;20016;-81
2024/03/05 10:21:18;;;;;;;22.17;14.25;;;;;;;;;;10550415;28;20479;-81
2024/03/05 10:26:20;;;;;;;24.73;15.18;;;;;;;;;;10529530;28;20024;-81
2024/03/05 10:31:22;;;;;;;21.80;14.68;;;;;;;;;;10547704;28;20031;-81
2024/03/05 10:36:24;;;;;;;23.05;15.32;;;;;;;;;;10547378;28;20081;-81
2024/03/05 10:41:28;;;;;;;19.67;13.73;;;;;;;;;;10530510;28;20033;-81
2024/03/05 10:46:29;;;;;;;16.55;10.73;;;;;;;;;;10530216;28;20028;-81
2024/03/05 10:51:31;;;;;;;16.73;11.55;;;;;;;;;;10554399;28;20139;-81
2024/03/05 10:56:33;;;;;;;18.30;12.75;;;;;;;;;;10550645;28;20029;-81
2024/03/05 11:01:36;;;;;;;13.45;10.27;;;;;;;;;;10533929;28;20035;-81
2024/03/05 11:06:40;;;;;;;18.23;13.13;;;;;;;;;;10532941;28;20028;-81
2024/03/05 11:11:43;;;;;;;14.18;10.10;;;;;;;;;;10556348;28;20020;-82
2024/03/05 11:16:56;;;;;;;16.95;12.18;;;;;;;;;;10541939;28;20114;-82
2024/03/05 11:21:58;;;;;;;18.60;13.05;;;;;;;;;;10572590;28;20021;-83
2024/03/05 11:27:11;;;;;;;34.70;24.20;;;;;;;;;;10574958;28;20016;-83
2024/03/05 11:32:14;;;;;;;15.57;10.82;;;;;;;;;;10594628;28;20000;-82
2024/03/05 11:37:15;;;;;;;17.15;12.75;;;;;;;;;;10573673;28;20104;-83
2024/03/05 11:42:17;;;;;;;12.82;9.57;;;;;;;;;;10541791;28;20036;-83
2024/03/05 11:47:22;;;;;;;19.50;13.82;;;;;;;;;;10539636;28;20096;-84
2024/03/05 11:52:24;;;;;;;16.55;11.93;;;;;;;;;;10541138;28;20028;-83
2024/03/05 11:57:27;;;;;;;16.10;11.40;;;;;;;;;;10542448;28;20028;-84
2024/03/05 12:02:28;;;;;;;15.75;11.95;;;;;;;;;;10540547;28;20113;-84
2024/03/05 12:07:29;;;;;;;16.90;12.88;;;;;;;;;;10557646;28;20020;-83
2024/03/05 12:12:30;;;;;;;16.67;12.07;;;;;;;;;;10539631;28;20075;-83
2024/03/05 12:17:33;;;;;;;15.32;11.15;;;;;;;;;;10539342;28;20055;-83
2024/03/05 12:22:37;;;;;;;13.15;9.75;;;;;;;;;;10558469;28;20100;-83
2024/03/05 12:27:38;;;;;;;14.40;10.07;;;;;;;;;;10561301;28;20028;-84
2024/03/05 12:32:44;;;;;;;9.80;7.68;;;;;;;;;;10563997;28;20082;-84
2024/03/05 12:37:45;;;;;;;11.65;8.90;;;;;;;;;;10564665;28;20016;-84
2024/03/05 12:42:47;;;;;;;11.10;8.43;;;;;;;;;;10562655;28;20053;-81
2024/03/05 12:47:58;;;;;;;8.20;6.47;;;;;;;;;;10562041;28;20031;-80
2024/03/05 12:53:00;;;;;;;;;;;;;;;;;;10557824;28;20087;-82
2024/03/05 12:58:08;;;;;;;11.00;8.63;;;;;;;;;;10565766;28;19935;-82
2024/03/05 13:03:10;;;;;;;16.70;10.65;;;;;;;;;;10555311;28;20016;-81
2024/03/05 13:08:12;;;;;;;14.48;9.88;;;;;;;;;;10537282;28;20031;-84
2024/03/05 13:13:13;;;;;;;10.13;7.40;;;;;;;;;;10554412;28;20027;-83
2024/03/05 13:18:14;;;;;;;8.48;6.22;;;;;;;;;;10555764;28;20031;-83
2024/03/05 13:23:15;;;;;;;7.85;6.75;;;;;;;;;;10554996;28;20108;-83
2024/03/05 13:28:16;;;;;;;8.20;6.88;;;;;;;;;;10535426;28;20028;-82
2024/03/05 13:33:36;;;;;;;10.15;6.95;;;;;;;;;;10597646;22;20031;-85
2024/03/05 13:38:38;;;;;;;15.20;10.43;;;;;;;;;;10590915;28;20093;-84
2024/03/05 13:43:41;;;;;;;9.90;7.50;;;;;;;;;;10574678;28;20023;-85
2024/03/05 13:48:43;;;;;;;10.90;7.80;;;;;;;;;;10573604;28;20091;-84
2024/03/05 13:53:48;;;;;;;11.82;9.20;;;;;;;;;;10556078;28;20031;-86
2024/03/05 13:59:09;;;;;;;6.78;5.72;;;;;;;;;;10533347;28;20078;-85
2024/03/05 14:09:34;;;;;;;9.25;4.85;;;;;;;;;;10550571;28;20028;-82
2024/03/05 14:14:35;;;;;;;8.75;7.32;;;;;;;;;;10533100;28;20161;-84
2024/03/05 14:19:40;;;;;;;9.07;7.43;;;;;;;;;;10567503;28;20020;-83
2024/03/05 14:25:11;;;;;;;6.30;5.00;;;;;;;;;;10552087;28;20059;-85
2024/03/05 14:30:17;;;;;;;7.38;6.28;;;;;;;;;;10536972;28;20062;-85
2024/03/05 14:35:22;;;;;;;7.72;6.47;;;;;;;;;;10537489;28;20111;-83
2024/03/05 14:40:24;;;;;;;8.35;5.75;;;;;;;;;;10558179;28;20032;-83
2024/03/05 14:45:32;;;;;;;7.15;5.57;;;;;;;;;;10535695;28;20024;-84
2024/03/05 14:51:05;;;;;;;6.18;5.18;;;;;;;;;;10549453;28;20028;-84
2024/03/05 14:56:28;;;;;;;7.10;5.57;;;;;;;;;;10513861;28;20020;-83
2024/03/05 15:01:30;;;;;;;10.85;6.22;;;;;;;;;;10528770;28;20028;-83
2024/03/05 15:06:31;;;;;;;10.40;8.75;;;;;;;;;;10539608;28;20020;-82
2024/03/05 15:11:32;;;;;;;7.20;5.40;;;;;;;;;;10537120;28;20140;-83
2024/03/05 15:16:33;;;;;;;7.82;5.40;;;;;;;;;;10533641;28;20039;-82
2024/03/05 15:21:34;;;;;;;6.13;5.00;;;;;;;;;;10536536;28;20071;-83
2024/03/05 15:26:38;;;;;;;6.38;4.72;;;;;;;;;;10535730;28;20110;-84
2024/03/05 15:31:39;;;;;;;6.68;4.63;;;;;;;;;;10538919;28;20054;-82
2024/03/05 15:36:41;;;;;;;5.47;4.20;;;;;;;;;;10538355;28;20031;-83
2024/03/05 15:41:43;;;;;;;12.13;8.02;;;;;;;;;;10537910;28;20035;-83
2024/03/05 15:46:44;;;;;;;7.13;5.05;;;;;;;;;;10537992;28;20047;-84
2024/03/05 15:51:45;;;;;;;5.38;4.10;;;;;;;;;;10536479;28;20048;-83
2024/03/05 15:56:57;;;;;;;4.63;3.55;;;;;;;;;;10535778;28;20028;-83
2024/03/05 16:01:58;;;;;;;4.53;3.67;;;;;;;;;;10535475;28;20025;-83
2024/03/05 16:06:59;;;;;;;4.72;3.72;;;;;;;;;;10537681;28;20024;-84
2024/03/05 16:12:00;;;;;;;6.13;4.22;;;;;;;;;;10538862;28;20032;-84
2024/03/05 16:17:03;;;;;;;5.38;3.90;;;;;;;;;;10539510;28;20393;-83
2024/03/05 16:22:04;;;;;;;5.53;3.97;;;;;;;;;;10540147;28;20024;-84
2024/03/05 16:27:05;;;;;;;5.47;4.10;;;;;;;;;;10537336;28;20092;-88
2024/03/05 16:32:06;;;;;;;5.38;3.30;;;;;;;;;;10538032;28;20028;-84
2024/03/05 16:37:08;;;;;;;4.35;3.92;;;;;;;;;;10537839;28;20048;-84
2024/03/05 16:42:21;;;;;;;5.95;3.45;;;;;;;;;;10536651;28;20024;-86
2024/03/05 16:47:28;;;;;;;4.55;3.25;;;;;;;;;;10569167;28;20028;-85
2024/03/05 16:52:29;;;;;;;7.30;4.28;;;;;;;;;;10538635;28;20111;-83
2024/03/05 16:57:31;;;;;;;4.57;3.10;;;;;;;;;;10540212;28;20066;-83
2024/03/05 17:02:34;;;;;;;5.10;3.78;;;;;;;;;;10540641;28;20407;-84
2024/03/05 17:07:36;;;;;;;4.57;3.10;;;;;;;;;;10538692;28;20050;-85
2024/03/05 17:12:39;;;;;;;4.80;3.03;;;;;;;;;;10536723;28;20024;-84
2024/03/05 17:17:40;;;;;;;3.47;2.42;;;;;;;;;;10539724;28;20024;-85
2024/03/05 17:22:41;;;;;;;5.38;3.55;;;;;;;;;;10537054;28;20020;-83
2024/03/05 17:27:44;;;;;;;5.18;3.42;;;;;;;;;;10532516;28;20032;-88
2024/03/05 17:32:45;;;;;;;5.03;3.42;;;;;;;;;;10531874;28;20043;-85
2024/03/05 17:37:46;;;;;;;3.40;2.53;;;;;;;;;;10532498;28;20025;-87
2024/03/05 17:42:48;;;;;;;4.35;2.85;;;;;;;;;;10528517;28;20028;-87
2024/03/05 17:47:50;;;;;;;3.72;3.20;;;;;;;;;;10527570;28;20119;-87
2024/03/05 17:52:52;;;;;;;4.22;3.17;;;;;;;;;;10531358;28;20020;-86
2024/03/05 17:57:53;;;;;;;3.90;3.08;;;;;;;;;;10560354;28;20468;-86
2024/03/05 18:02:55;;;;;;;4.90;3.13;;;;;;;;;;10528729;28;20502;-87
2024/03/05 18:07:56;;;;;;;4.07;2.90;;;;;;;;;;10529908;28;20027;-87
2024/03/05 18:12:58;;;;;;;3.65;2.60;;;;;;;;;;10560608;28;20024;-86
2024/03/05 18:18:01;;;;;;;3.38;2.65;;;;;;;;;;10541139;28;20032;-87
2024/03/05 18:23:02;;;;;;;5.38;3.63;;;;;;;;;;10529692;28;20028;-87
2024/03/05 18:28:03;;;;;;;4.18;3.40;;;;;;;;;;10529773;28;20020;-87
2024/03/05 18:33:06;;;;;;;3.40;2.90;;;;;;;;;;10529659;28;20032;-86
2024/03/05 18:38:08;;;;;;;4.07;3.05;;;;;;;;;;10531792;28;20387;-87
2024/03/05 18:43:09;;;;;;;5.15;3.40;;;;;;;;;;10551811;28;20069;-86
2024/03/05 18:48:10;;;;;;;5.78;4.43;;;;;;;;;;10550669;28;20395;-87
2024/03/05 18:53:11;;;;;;;8.90;5.30;;;;;;;;;;10532023;28;20395;-86
2024/03/05 18:58:12;;;;;;;5.63;4.38;;;;;;;;;;10533970;28;20024;-87
2024/03/05 19:03:13;;;;;;;4.50;3.45;;;;;;;;;;10550924;28;20020;-86
2024/03/05 19:08:18;;;;;;;4.22;3.05;;;;;;;;;;10532636;28;20024;-87
2024/03/05 19:13:20;;;;;;;6.13;4.10;;;;;;;;;;10533958;28;20020;-87
2024/03/05 19:18:21;;;;;;;6.95;5.43;;;;;;;;;;10533686;28;20048;-87
2024/03/05 19:23:23;;;;;;;6.78;5.90;;;;;;;;;;10532993;28;20020;-87
2024/03/05 19:28:24;;;;;;;5.45;4.18;;;;;;;;;;10551057;28;20104;-87
2024/03/05 19:33:25;;;;;;;5.00;3.40;;;;;;;;;;10599518;22;20039;-82
2024/03/05 19:38:27;;;;;;;4.80;3.60;;;;;;;;;;10545846;28;20028;-83
2024/03/05 19:43:28;;;;;;;4.78;3.45;;;;;;;;;;10544473;28;20016;-83
2024/03/05 19:48:29;;;;;;;6.15;4.93;;;;;;;;;;10556607;28;20035;-83
2024/03/05 19:53:30;;;;;;;5.60;4.20;;;;;;;;;;10573788;28;20032;-82
2024/03/05 19:58:31;;;;;;;5.03;3.70;;;;;;;;;;10563704;28;20035;-83
2024/03/05 20:03:32;;;;;;;4.35;3.70;;;;;;;;;;10552023;28;20017;-81
